createdAt,value
2018-06-08T00:00:53.838Z,35.53
2018-06-08T00:03:22.393Z,31.07
2018-06-08T00:05:50.959Z,35.67
2018-06-08T00:08:19.482Z,35.90
2018-06-08T00:10:48.673Z,36.53
2018-06-08T00:13:17.225Z,36.83
2018-06-08T00:15:45.480Z,36.50
2018-06-08T00:18:15.916Z,37.27
2018-06-08T00:20:44.530Z,36.77
2018-06-08T00:23:14.582Z,38.00
2018-06-08T00:25:44.131Z,28.87
2018-06-08T00:28:12.829Z,35.17
2018-06-08T00:30:41.434Z,34.60
2018-06-08T00:33:10.166Z,32.43
2018-06-08T00:35:38.721Z,32.03
2018-06-08T00:38:07.375Z,32.23
2018-06-08T00:40:36.839Z,31.80
2018-06-08T00:43:05.574Z,27.33
2018-06-08T00:45:34.140Z,30.90
2018-06-08T00:48:02.765Z,25.23
2018-06-08T00:50:31.350Z,31.93
2018-06-08T00:52:59.930Z,31.53
2018-06-08T00:55:28.545Z,30.97
2018-06-08T00:57:57.135Z,32.50
2018-06-08T01:00:25.674Z,29.50
2018-06-08T01:02:54.234Z,29.70
2018-06-08T01:05:22.758Z,30.20
2018-06-08T01:07:51.342Z,31.23
2018-06-08T01:10:19.906Z,28.63
2018-06-08T01:12:48.452Z,27.93
2018-06-08T01:15:17.014Z,29.43
2018-06-08T01:17:45.566Z,29.37
2018-06-08T01:20:14.114Z,29.37
2018-06-08T01:22:42.669Z,29.30
2018-06-08T01:25:11.255Z,29.73
2018-06-08T01:27:39.847Z,27.70
2018-06-08T01:30:08.390Z,24.63
2018-06-08T01:32:36.933Z,27.27
2018-06-08T01:35:05.981Z,28.03
2018-06-08T01:37:34.518Z,26.03
2018-06-08T01:40:03.093Z,23.17
2018-06-08T01:42:31.651Z,22.47
2018-06-08T01:45:00.240Z,22.57
2018-06-08T01:47:28.822Z,24.40
2018-06-08T01:49:57.345Z,25.20
2018-06-08T01:52:25.935Z,25.40
2018-06-08T01:54:54.469Z,19.90
2018-06-08T01:57:23.024Z,17.50
2018-06-08T01:59:51.571Z,26.43
2018-06-08T02:02:20.155Z,28.10
2018-06-08T02:04:48.739Z,23.13
2018-06-08T02:07:17.270Z,25.80
2018-06-08T02:09:45.817Z,27.03
2018-06-08T02:12:14.370Z,22.07
2018-06-08T02:14:42.930Z,29.47
2018-06-08T02:17:11.480Z,30.53
2018-06-08T02:19:40.054Z,30.10
2018-06-08T02:22:08.626Z,29.67
2018-06-08T02:24:37.214Z,30.73
2018-06-08T02:27:05.753Z,30.67
2018-06-08T02:29:34.293Z,31.77
2018-06-08T02:32:02.926Z,32.50
2018-06-08T02:34:31.526Z,32.00
2018-06-08T02:37:00.074Z,32.83
2018-06-08T02:39:28.640Z,34.43
2018-06-08T02:41:57.174Z,33.37
2018-06-08T02:44:25.718Z,32.93
2018-06-08T02:46:54.294Z,34.93
2018-06-08T02:49:22.870Z,33.17
2018-06-08T02:51:51.453Z,35.27
2018-06-08T02:54:19.983Z,33.97
2018-06-08T02:56:48.555Z,37.80
2018-06-08T02:59:17.082Z,38.10
2018-06-08T03:01:45.630Z,37.87
2018-06-08T03:04:14.203Z,38.17
2018-06-08T03:06:42.767Z,30.93
2018-06-08T03:09:11.292Z,35.83
2018-06-08T03:11:39.856Z,38.37
2018-06-08T03:14:08.401Z,39.00
2018-06-08T03:16:37.004Z,39.30
2018-06-08T03:19:05.575Z,39.03
2018-06-08T03:21:34.130Z,37.77
2018-06-08T03:24:02.692Z,41.83
2018-06-08T03:26:31.278Z,42.70
2018-06-08T03:28:59.811Z,42.80
2018-06-08T03:31:28.410Z,39.30
2018-06-08T03:33:57.094Z,43.10
2018-06-08T03:36:25.638Z,41.30
2018-06-08T03:38:54.218Z,41.87
2018-06-08T03:41:22.755Z,42.93
2018-06-08T03:43:51.322Z,42.73
2018-06-08T03:46:19.866Z,42.37
2018-06-08T03:48:48.433Z,41.50
2018-06-08T03:51:17.743Z,40.35
2018-06-08T03:53:46.302Z,42.10
2018-06-08T03:56:14.866Z,38.97
2018-06-08T03:58:43.434Z,39.87
2018-06-08T04:01:12.021Z,37.43
2018-06-08T04:03:40.630Z,39.13
2018-06-08T04:06:09.223Z,37.60
2018-06-08T04:08:37.836Z,38.43
2018-06-08T04:11:07.233Z,39.57
2018-06-08T04:13:35.793Z,38.77
2018-06-08T04:16:04.400Z,38.87
2018-06-08T04:18:32.977Z,38.73
2018-06-08T04:21:01.524Z,38.23
2018-06-08T04:23:30.058Z,34.57
2018-06-08T04:25:58.590Z,38.83
2018-06-08T04:28:27.150Z,38.63
2018-06-08T04:30:55.680Z,38.53
2018-06-08T04:33:24.238Z,38.40
2018-06-08T04:35:53.450Z,38.90
2018-06-08T04:38:22.061Z,36.90
2018-06-08T04:40:50.628Z,36.67
2018-06-08T04:43:19.166Z,37.23
2018-06-08T04:45:47.739Z,38.80
2018-06-08T04:48:16.351Z,30.47
2018-06-08T04:50:44.907Z,39.30
2018-06-08T04:53:13.485Z,39.43
2018-06-08T04:55:42.038Z,39.20
2018-06-08T04:58:10.607Z,33.87
2018-06-08T05:00:39.163Z,37.93
2018-06-08T05:03:07.696Z,40.57
2018-06-08T05:05:36.299Z,36.77
2018-06-08T05:08:04.956Z,35.10
2018-06-08T05:10:33.520Z,35.90
2018-06-08T05:13:02.120Z,35.97
2018-06-08T05:15:30.667Z,36.00
2018-06-08T05:17:59.207Z,36.73
2018-06-08T05:20:27.831Z,32.73
2018-06-08T05:22:56.378Z,35.83
2018-06-08T05:25:24.962Z,36.83
2018-06-08T05:27:53.538Z,34.00
2018-06-08T05:30:24.093Z,33.83
2018-06-08T05:32:52.674Z,37.83
2018-06-08T05:35:21.318Z,39.77
2018-06-08T05:37:49.842Z,30.33
2018-06-08T05:40:18.433Z,37.43
2018-06-08T05:42:46.977Z,37.10
2018-06-08T05:45:15.659Z,37.67
2018-06-08T05:47:44.227Z,36.90
2018-06-08T05:50:12.760Z,38.47
2018-06-08T05:52:41.345Z,28.23
2018-06-08T05:55:09.941Z,33.57
2018-06-08T05:57:38.517Z,32.83
2018-06-08T06:00:07.129Z,36.57
2018-06-08T06:02:35.691Z,34.83
2018-06-08T06:05:04.299Z,36.83
2018-06-08T06:07:32.879Z,26.90
2018-06-08T06:10:01.448Z,34.20
2018-06-08T06:12:30.059Z,37.13
2018-06-08T06:14:58.607Z,34.53
2018-06-08T06:17:27.251Z,34.37
2018-06-08T06:19:55.789Z,33.83
2018-06-08T06:22:24.358Z,35.17
2018-06-08T06:24:52.946Z,30.20
2018-06-08T06:27:21.529Z,36.37
2018-06-08T06:29:50.084Z,32.97
2018-06-08T06:32:18.684Z,34.00
2018-06-08T06:34:47.258Z,37.40
2018-06-08T06:37:15.849Z,37.73
2018-06-08T06:39:44.390Z,34.47
2018-06-08T06:42:12.935Z,37.73
2018-06-08T06:44:41.497Z,34.60
2018-06-08T06:47:10.131Z,39.50
2018-06-08T06:49:38.730Z,37.00
2018-06-08T06:52:07.298Z,35.13
2018-06-08T06:54:35.854Z,33.80
2018-06-08T06:57:04.452Z,32.30
2018-06-08T06:59:32.987Z,33.17
2018-06-08T07:02:01.542Z,26.87
2018-06-08T07:04:30.129Z,36.30
2018-06-08T07:06:58.716Z,35.70
2018-06-08T07:09:27.271Z,34.73
2018-06-08T07:11:55.798Z,35.00
2018-06-08T07:14:24.353Z,29.27
2018-06-08T07:16:52.864Z,35.03
2018-06-08T07:19:21.464Z,31.93
2018-06-08T07:21:50.043Z,32.97
2018-06-08T07:24:18.623Z,34.73
2018-06-08T07:26:47.199Z,34.93
2018-06-08T07:29:15.748Z,35.03
2018-06-08T07:31:44.496Z,31.37
2018-06-08T07:34:12.990Z,32.77
2018-06-08T07:36:41.550Z,29.67
2018-06-08T07:39:10.378Z,28.13
2018-06-08T07:41:38.925Z,31.57
2018-06-08T07:44:07.488Z,35.90
2018-06-08T07:46:36.051Z,31.87
2018-06-08T07:49:04.716Z,29.87
2018-06-08T07:51:33.272Z,29.83
2018-06-08T07:54:01.814Z,30.13
2018-06-08T07:56:30.420Z,28.70
2018-06-08T07:58:58.966Z,30.07
2018-06-08T08:01:27.520Z,28.93
2018-06-08T08:03:56.098Z,26.00
2018-06-08T08:06:24.643Z,26.37
2018-06-08T08:08:53.231Z,23.67
2018-06-08T08:11:21.835Z,23.33
2018-06-08T08:13:50.381Z,24.83
2018-06-08T08:16:18.963Z,23.27
2018-06-08T08:18:47.529Z,25.60
2018-06-08T08:21:16.136Z,22.63
2018-06-08T08:23:44.697Z,21.57
2018-06-08T08:26:13.231Z,23.90
2018-06-08T08:28:41.793Z,25.43
2018-06-08T08:31:10.374Z,25.83
2018-06-08T08:39:24.095Z,23.93
2018-06-08T08:41:52.673Z,26.53
2018-06-08T08:44:21.310Z,25.10
2018-06-08T08:46:49.910Z,26.40
2018-06-08T08:49:18.594Z,26.87
2018-06-08T08:51:47.279Z,27.07
2018-06-08T08:54:15.836Z,29.27
2018-06-08T08:56:44.451Z,24.93
2018-06-08T08:59:13.061Z,28.33
2018-06-08T09:01:41.696Z,28.90
2018-06-08T09:04:10.306Z,29.73
2018-06-08T09:06:38.903Z,28.80
2018-06-08T09:09:07.765Z,30.40
2018-06-08T09:11:36.350Z,32.13
2018-06-08T09:14:05.072Z,33.00
2018-06-08T09:16:33.763Z,32.90
2018-06-08T09:19:02.462Z,31.63
2018-06-08T09:21:31.084Z,27.50
2018-06-08T09:24:01.490Z,26.83
2018-06-08T09:26:30.166Z,24.93
2018-06-08T09:28:58.729Z,31.77
2018-06-08T09:31:27.775Z,32.13
2018-06-08T09:33:56.377Z,33.43
2018-06-08T09:36:24.988Z,32.33
2018-06-08T09:38:53.570Z,35.97
2018-06-08T09:41:22.262Z,36.93
2018-06-08T09:43:50.924Z,36.47
2018-06-08T09:46:19.517Z,35.20
2018-06-08T09:48:48.107Z,34.73
2018-06-08T09:51:16.728Z,36.63
2018-06-08T09:53:45.383Z,37.60
2018-06-08T09:56:13.979Z,36.50
2018-06-08T09:58:42.542Z,38.87
2018-06-08T10:01:11.154Z,40.70
2018-06-08T10:03:39.725Z,38.30
2018-06-08T10:06:08.301Z,41.90
2018-06-08T10:08:36.907Z,45.43
2018-06-08T10:11:05.498Z,46.03
2018-06-08T10:13:34.923Z,46.23
2018-06-08T10:16:04.349Z,41.20
2018-06-08T10:18:32.950Z,43.10
2018-06-08T10:21:01.524Z,44.70
2018-06-08T10:23:30.156Z,43.23
2018-06-08T10:25:59.494Z,43.63
2018-06-08T10:28:28.034Z,37.37
2018-06-08T10:30:56.567Z,40.90
2018-06-08T10:33:25.119Z,43.83
2018-06-08T10:35:53.707Z,35.27
2018-06-08T10:38:22.250Z,37.67
2018-06-08T10:40:50.818Z,31.10
2018-06-08T10:43:19.347Z,36.73
2018-06-08T10:45:47.881Z,35.13
2018-06-08T10:48:16.463Z,34.30
2018-06-08T10:50:45.074Z,39.03
2018-06-08T10:53:13.612Z,35.87
2018-06-08T10:55:42.130Z,35.97
2018-06-08T10:58:10.706Z,37.50
2018-06-08T11:00:39.235Z,34.03
2018-06-08T11:03:07.751Z,35.10
2018-06-08T11:05:36.470Z,32.83
2018-06-08T11:08:05.059Z,30.77
2018-06-08T11:10:33.579Z,29.87
2018-06-08T11:13:02.099Z,28.13
2018-06-08T11:15:30.664Z,31.80
2018-06-08T11:17:59.226Z,35.37
2018-06-08T11:20:27.789Z,25.57
2018-06-08T11:22:56.427Z,29.73
2018-06-08T11:25:24.967Z,21.23
2018-06-08T11:27:53.532Z,23.60
2018-06-08T11:30:22.051Z,27.73
2018-06-08T11:32:50.603Z,34.80
2018-06-08T11:35:19.118Z,32.77
2018-06-08T11:37:47.750Z,30.93
2018-06-08T11:40:16.302Z,29.17
2018-06-08T11:42:44.904Z,30.50
2018-06-08T11:45:13.467Z,27.40
2018-06-08T11:47:42.116Z,35.83
2018-06-08T11:50:10.708Z,29.13
2018-06-08T11:52:39.271Z,33.77
2018-06-08T11:55:07.829Z,33.67
2018-06-08T11:57:36.385Z,35.93
2018-06-08T12:00:05.307Z,31.30
2018-06-08T12:02:33.872Z,33.70
2018-06-08T12:05:02.403Z,33.50
2018-06-08T12:07:30.975Z,31.63
2018-06-08T12:09:59.514Z,34.30
2018-06-08T12:12:28.099Z,32.30
2018-06-08T12:14:56.653Z,40.17
2018-06-08T12:17:25.274Z,35.47
2018-06-08T12:19:53.778Z,39.20
2018-06-08T12:22:22.305Z,35.73
2018-06-08T12:24:50.858Z,33.40
2018-06-08T12:27:19.410Z,35.80
2018-06-08T12:29:47.934Z,33.50
2018-06-08T12:32:16.489Z,33.70
2018-06-08T12:34:45.024Z,39.73
2018-06-08T12:37:13.616Z,32.23
2018-06-08T12:39:42.194Z,33.60
2018-06-08T12:42:10.778Z,33.53
2018-06-08T12:44:39.327Z,30.70
2018-06-08T12:47:07.894Z,33.80
2018-06-08T12:49:36.553Z,29.97
2018-06-08T12:52:05.173Z,30.07
2018-06-08T12:54:33.803Z,29.97
2018-06-08T12:57:02.367Z,29.07
2018-06-08T12:59:30.939Z,30.20
2018-06-08T13:01:59.527Z,35.13
2018-06-08T13:04:28.072Z,30.10
2018-06-08T13:06:56.629Z,30.53
2018-06-08T13:09:25.200Z,28.90
2018-06-08T13:11:53.763Z,29.63
2018-06-08T13:14:22.352Z,31.13
2018-06-08T13:16:50.938Z,30.57
2018-06-08T13:19:19.489Z,28.93
2018-06-08T13:21:48.218Z,32.33
2018-06-08T13:24:16.742Z,29.93
2018-06-08T13:26:45.328Z,27.17
2018-06-08T13:29:13.885Z,28.23
2018-06-08T13:31:42.502Z,25.93
2018-06-08T13:34:11.058Z,24.03
2018-06-08T13:36:39.671Z,25.37
2018-06-08T13:39:08.330Z,24.93
2018-06-08T13:41:36.975Z,28.27
2018-06-08T13:44:05.694Z,27.07
2018-06-08T13:46:46.227Z,25.20
2018-06-08T13:49:14.829Z,24.97
2018-06-08T13:51:43.462Z,29.07
2018-06-08T13:54:12.029Z,28.47
2018-06-08T13:56:40.626Z,24.80
2018-06-08T13:59:09.194Z,24.27
2018-06-08T14:01:37.818Z,27.17
2018-06-08T14:04:06.386Z,24.63
2018-06-08T14:06:35.161Z,24.60
2018-06-08T14:09:04.689Z,29.23
2018-06-08T14:11:33.269Z,29.87
2018-06-08T14:14:01.815Z,25.27
2018-06-08T14:16:30.407Z,26.00
2018-06-08T14:18:58.951Z,26.77
2018-06-08T14:21:27.633Z,23.97
2018-06-08T14:23:56.189Z,26.03
2018-06-08T14:26:24.760Z,23.23
2018-06-08T14:28:53.323Z,28.40
2018-06-08T14:31:21.996Z,28.03
2018-06-08T14:36:43.266Z,27.00
2018-06-08T14:39:11.882Z,27.83
2018-06-08T14:41:42.892Z,25.53
2018-06-08T14:44:11.554Z,29.75
2018-06-08T14:46:40.314Z,26.57
2018-06-08T14:49:08.913Z,28.23
2018-06-08T14:51:37.497Z,25.40
2018-06-08T14:54:06.087Z,25.47
2018-06-08T14:56:34.742Z,25.53
2018-06-08T14:59:03.471Z,21.90
2018-06-08T15:01:32.100Z,23.37
2018-06-08T15:04:00.683Z,23.33
2018-06-08T15:06:29.278Z,26.93
2018-06-08T15:08:57.939Z,24.57
2018-06-08T15:11:26.573Z,22.90
2018-06-08T15:13:55.135Z,25.07
2018-06-08T15:16:23.836Z,26.00
2018-06-08T15:18:52.481Z,22.03
2018-06-08T15:21:21.149Z,21.80
2018-06-08T15:23:49.800Z,23.47
2018-06-08T15:26:18.421Z,24.87
2018-06-08T15:28:47.054Z,22.40
2018-06-08T15:31:15.666Z,24.57
2018-06-08T15:33:44.247Z,22.60
2018-06-08T15:36:12.859Z,22.27
2018-06-08T15:38:41.441Z,23.00
2018-06-08T15:41:10.041Z,22.10
2018-06-08T15:43:38.706Z,22.60
2018-06-08T15:46:07.318Z,23.03
2018-06-08T15:48:35.929Z,21.33
2018-06-08T15:51:04.519Z,22.27
2018-06-08T15:53:33.163Z,23.57
2018-06-08T15:56:01.762Z,22.30
2018-06-08T15:58:30.370Z,21.60
2018-06-08T16:00:59.159Z,23.17
2018-06-08T16:03:27.695Z,21.23
2018-06-08T16:05:56.270Z,21.53
2018-06-08T16:08:24.885Z,21.27
2018-06-08T16:10:53.510Z,23.17
2018-06-08T16:13:22.167Z,23.73
2018-06-08T16:15:50.765Z,21.77
2018-06-08T16:18:19.359Z,22.93
2018-06-08T16:20:48.021Z,21.73
2018-06-08T16:23:16.608Z,25.47
2018-06-08T16:25:45.200Z,25.50
2018-06-08T16:28:13.855Z,26.63
2018-06-08T16:30:43.010Z,25.17
2018-06-08T16:33:12.220Z,26.10
2018-06-08T16:35:40.757Z,25.40
2018-06-08T16:38:09.370Z,21.70
2018-06-08T16:40:37.942Z,22.77
2018-06-08T16:43:06.583Z,27.43
2018-06-08T16:45:35.159Z,25.33
2018-06-08T16:48:03.800Z,27.03
2018-06-08T16:50:32.507Z,24.00
2018-06-08T16:53:01.049Z,25.23
2018-06-08T16:55:29.740Z,24.90
2018-06-08T16:58:02.219Z,27.23
2018-06-08T17:11:59.894Z,28.77
2018-06-08T17:14:28.532Z,24.57
2018-06-08T17:16:57.138Z,29.90
2018-06-08T17:19:25.764Z,23.83
2018-06-08T17:21:54.458Z,24.43
2018-06-08T17:24:23.065Z,25.97
2018-06-08T17:26:51.667Z,24.80
2018-06-08T17:29:20.337Z,27.07
2018-06-08T17:31:48.968Z,24.77
2018-06-08T17:34:17.687Z,25.33
2018-06-08T17:36:46.322Z,23.90
2018-06-08T17:39:14.966Z,25.40
2018-06-08T17:41:43.605Z,22.63
2018-06-08T17:44:12.220Z,24.03
2018-06-08T17:46:40.924Z,25.00
2018-06-08T17:49:09.571Z,20.90
2018-06-08T17:51:38.383Z,19.80
2018-06-08T17:54:07.017Z,25.23
2018-06-08T17:56:35.687Z,21.23
2018-06-08T17:59:04.349Z,22.57
2018-06-08T18:01:32.961Z,22.40
2018-06-08T18:04:01.600Z,20.97
2018-06-08T18:06:30.220Z,21.40
2018-06-08T18:08:58.903Z,24.70
2018-06-08T18:11:27.525Z,21.30
2018-06-08T18:13:56.158Z,20.67
2018-06-08T18:16:24.814Z,23.10
2018-06-08T18:18:53.454Z,23.13
2018-06-08T18:21:22.069Z,19.80
2018-06-08T18:23:50.702Z,27.00
2018-06-08T18:26:19.362Z,22.83
2018-06-08T18:28:48.018Z,25.50
2018-06-08T18:31:16.592Z,22.63
2018-06-08T18:33:45.207Z,28.33
2018-06-08T18:36:13.857Z,23.07
2018-06-08T18:38:42.536Z,21.73
2018-06-08T18:41:11.169Z,22.10
2018-06-08T18:43:39.807Z,26.50
2018-06-08T18:46:08.449Z,20.83
2018-06-08T18:48:37.086Z,25.53
2018-06-08T18:51:05.770Z,21.60
2018-06-08T18:53:34.416Z,22.40
2018-06-08T18:56:03.085Z,19.93
2018-06-08T18:58:31.718Z,19.07
2018-06-08T19:01:00.395Z,21.37
2018-06-08T19:03:29.227Z,20.53
2018-06-08T19:05:57.944Z,19.47
2018-06-08T19:08:26.592Z,19.30
2018-06-08T19:10:55.234Z,20.17
2018-06-08T19:13:23.966Z,21.13
2018-06-08T19:15:52.650Z,22.13
2018-06-08T19:18:21.277Z,19.53
2018-06-08T19:20:49.887Z,21.47
2018-06-08T19:23:18.911Z,19.33
2018-06-08T19:25:47.596Z,24.83
2018-06-08T19:28:16.205Z,25.00
2018-06-08T19:30:44.917Z,22.83
2018-06-08T19:33:13.566Z,20.97
2018-06-08T19:35:42.174Z,21.73
2018-06-08T19:38:10.814Z,25.50
2018-06-08T19:40:39.440Z,18.77
2018-06-08T19:43:08.262Z,25.17
2018-06-08T19:45:37.193Z,21.07
2018-06-08T19:48:05.808Z,19.57
2018-06-08T19:50:34.562Z,24.10
2018-06-08T19:53:03.161Z,21.90
2018-06-08T19:55:31.802Z,19.80
2018-06-08T19:58:00.413Z,21.80
2018-06-08T20:00:28.993Z,23.37
2018-06-08T20:02:57.635Z,21.30
2018-06-08T20:05:26.245Z,23.77
2018-06-08T20:07:54.874Z,22.47
2018-06-08T20:10:23.480Z,22.17
2018-06-08T20:12:52.106Z,23.33
2018-06-08T20:15:20.793Z,21.47
2018-06-08T20:17:49.399Z,24.63
2018-06-08T20:20:18.012Z,24.47
2018-06-08T20:22:46.857Z,22.43
2018-06-08T20:25:15.466Z,24.67
2018-06-08T20:27:44.114Z,25.27
2018-06-08T20:30:12.711Z,23.40
2018-06-08T20:32:41.330Z,23.43
2018-06-08T20:35:09.930Z,25.67
2018-06-08T20:37:38.559Z,30.03
2018-06-08T20:40:07.192Z,24.87
2018-06-08T20:42:35.785Z,25.43
2018-06-08T20:45:04.545Z,25.93
2018-06-08T20:47:33.171Z,29.87
2018-06-08T20:50:01.771Z,25.77
2018-06-08T20:52:30.512Z,25.80
2018-06-08T20:54:59.101Z,25.20
2018-06-08T20:57:28.761Z,23.57
2018-06-08T20:59:57.352Z,28.57
2018-06-08T21:02:25.983Z,24.93
2018-06-08T21:04:54.582Z,28.73
2018-06-08T21:07:23.211Z,26.90
2018-06-08T21:09:51.863Z,29.37
2018-06-08T21:12:20.472Z,28.83
2018-06-08T21:14:49.134Z,33.80
2018-06-08T21:17:17.779Z,27.97
2018-06-08T21:19:46.431Z,30.20
2018-06-08T21:22:15.118Z,27.87
2018-06-08T21:24:43.720Z,31.33
2018-06-08T21:27:12.365Z,29.47
2018-06-08T21:29:41.006Z,28.17
2018-06-08T21:32:09.644Z,25.83
2018-06-08T21:34:38.281Z,28.50
2018-06-08T21:37:06.904Z,30.10
2018-06-08T21:39:35.545Z,30.87
2018-06-08T21:42:04.257Z,30.80
2018-06-08T21:44:32.889Z,32.87
2018-06-08T21:47:01.547Z,33.43
2018-06-08T21:49:30.186Z,31.60
2018-06-08T21:51:58.936Z,29.43
2018-06-08T21:54:27.609Z,32.87
2018-06-08T21:56:56.268Z,29.63
2018-06-08T21:59:24.905Z,33.70
2018-06-08T22:01:53.611Z,31.80
2018-06-08T22:04:22.322Z,31.47
2018-06-08T22:06:50.949Z,32.70
2018-06-08T22:09:19.584Z,32.73
2018-06-08T22:11:48.198Z,31.23
2018-06-08T22:14:16.837Z,32.10
2018-06-08T22:16:45.524Z,33.67
2018-06-08T22:19:14.124Z,32.83
2018-06-08T22:21:42.816Z,33.47
2018-06-08T22:24:11.454Z,31.27
2018-06-08T22:26:40.065Z,30.13
2018-06-08T22:29:08.677Z,34.27
2018-06-08T22:31:37.282Z,34.87
2018-06-08T22:34:06.002Z,32.47
2018-06-08T22:36:34.639Z,29.60
2018-06-08T22:39:03.369Z,31.17
2018-06-08T22:41:31.980Z,31.10
2018-06-08T22:44:00.635Z,35.40
2018-06-08T22:46:29.264Z,30.63
2018-06-08T22:48:57.941Z,30.17
2018-06-08T22:51:26.776Z,30.23
2018-06-08T22:53:55.384Z,31.73
2018-06-08T22:56:24.001Z,28.03
2018-06-08T22:58:52.632Z,29.47
2018-06-08T23:01:21.287Z,29.00
2018-06-08T23:03:49.909Z,28.23
2018-06-08T23:06:18.500Z,29.03
2018-06-08T23:08:47.134Z,28.53
2018-06-08T23:11:15.858Z,30.00
2018-06-08T23:13:44.469Z,28.77
2018-06-08T23:16:13.096Z,29.80
2018-06-08T23:18:41.721Z,27.57
2018-06-08T23:21:10.292Z,27.23
2018-06-08T23:23:38.912Z,28.77
2018-06-08T23:26:07.544Z,31.73
2018-06-08T23:28:36.162Z,32.87
2018-06-08T23:31:04.885Z,25.97
2018-06-08T23:33:33.492Z,27.03
2018-06-08T23:36:02.137Z,28.17
2018-06-08T23:38:30.766Z,26.97
2018-06-08T23:40:59.389Z,26.30
2018-06-08T23:43:27.995Z,25.93
2018-06-08T23:45:56.606Z,24.20
2018-06-08T23:48:25.465Z,24.00
2018-06-08T23:50:54.082Z,22.87
2018-06-08T23:53:22.714Z,23.33
2018-06-08T23:55:51.293Z,23.37
2018-06-08T23:58:19.870Z,23.77
